• Join FlightAware (Why Join?)
  • Login
  • US Flag 
08:03PM EDT


 

Airport Tracker/Info


-or-


 

Live Flight TrackerFlight Track Log ✈ VH-EFI ✈ 27-Jun-2013 ✈ YPKG / KGI - YPJT / JAD

Flight Track Log - Related Links

Times and Time Zones

All times are in EDT time to prevent confusion due to time zone crossing. See the VH-EFI flight status page for this flight to view local times or setup timezone preferences in your user account.

Time Position Orientation Groundspeed Altitude Reporting Facility
EDT Latitude Longitude Course Direction KTS MPH feet Rate Location/Type
09:22PM -30.7894 121.4617 360° North 6,000  Level Aus ATC (Calculated)
09:23PM -30.7894 121.4617 255° West 6,000  Level Aus ATC (Calculated)
09:25PM -30.8029 121.4012 255° West  Level FlightAware Approximate
09:26PM -30.8111 121.3645 255° West  Level FlightAware Approximate
09:26PM -30.8186 121.3309 255° West 6,000  Level Aus ATC (Calculated)
09:28PM -30.8302 121.2786 255° West  Level FlightAware Approximate
09:29PM -30.8389 121.2394 256° West  Level FlightAware Approximate
09:30PM -30.8476 121.2001 256° West  Level FlightAware Approximate
09:31PM -30.8563 121.1609 256° West  Level FlightAware Approximate
09:32PM -30.8650 121.1216 256° West  Level FlightAware Approximate
09:33PM -30.8736 121.0824 256° West  Level FlightAware Approximate
09:34PM -30.8823 121.0431 256° West  Level FlightAware Approximate
09:35PM -30.8909 121.0038 256° West  Level FlightAware Approximate
09:36PM -30.8995 120.9645 256° West  Level FlightAware Approximate
09:37PM -30.9081 120.9252 256° West  Level FlightAware Approximate
09:37PM -30.9134 120.9012 256° West 6,000  Level Aus ATC (Calculated)
09:38PM -30.9167 120.8859 256° West  Level FlightAware Approximate
09:39PM -30.9246 120.8501 256° West  Level FlightAware Approximate
09:40PM -30.9331 120.8108 256° West  Level FlightAware Approximate
09:41PM -30.9417 120.7715 256° West  Level FlightAware Approximate
09:42PM -30.9503 120.7321 256° West  Level FlightAware Approximate
09:43PM -30.9588 120.6928 256° West  Level FlightAware Approximate
09:44PM -30.9673 120.6535 256° West  Level FlightAware Approximate
09:45PM -30.9758 120.6141 256° West  Level FlightAware Approximate
09:46PM -30.9844 120.5748 256° West  Level FlightAware Approximate
09:47PM -30.9928 120.5354 256° West  Level FlightAware Approximate
09:48PM -31.0013 120.4960 256° West  Level FlightAware Approximate
09:48PM -30.9968 120.5168 256° West 6,000  Level Aus ATC (Calculated)
09:49PM -31.0098 120.4566 256° West  Level FlightAware Approximate
09:50PM -31.0121 120.4460 256° West  Level FlightAware Approximate
09:50PM -31.0123 120.4447 256° West 6,000  Level Aus ATC (Calculated)
09:52PM -31.0243 120.3889 256° West  Level FlightAware Approximate
09:53PM -31.0327 120.3495 256° West  Level FlightAware Approximate
09:53PM -31.0413 120.3094 77° East 6,000  Level Aus ATC (Calculated)
09:54PM -31.0412 120.3101 256° West  Level FlightAware Approximate
09:54PM -31.0539 120.2502 256° West 6,000  Level Aus ATC (Calculated)
09:55PM -31.0552 120.2444 256° West  Level FlightAware Approximate
09:56PM -31.0650 120.1983 256° West  Level FlightAware Approximate
09:57PM -31.0734 120.1588 256° West  Level FlightAware Approximate
09:57PM -31.0775 120.1391 10° North 6,000  Level Aus ATC (Calculated)
09:57PM -31.0775 120.1391 256° West 6,000  Level Aus ATC (Calculated)
09:59PM -31.0913 120.0740 256° West  Level FlightAware Approximate
10:00PM -31.0997 120.0346 256° West  Level FlightAware Approximate
10:01PM -31.1080 119.9951 256° West  Level FlightAware Approximate
10:02PM -31.1163 119.9556 256° West  Level FlightAware Approximate
10:03PM -31.1246 119.9162 256° West  Level FlightAware Approximate
10:04PM -31.1329 119.8767 256° West  Level FlightAware Approximate
10:05PM -31.1412 119.8372 256° West  Level FlightAware Approximate
10:06PM -31.1495 119.7977 256° West  Level FlightAware Approximate
10:07PM -31.1577 119.7582 256° West  Level FlightAware Approximate
10:08PM -31.1660 119.7187 256° West  Level FlightAware Approximate
10:09PM -31.1742 119.6792 256° West  Level FlightAware Approximate
10:10PM -31.1824 119.6397 256° West  Level FlightAware Approximate
10:11PM -31.1907 119.6001 256° West  Level FlightAware Approximate
10:12PM -31.1989 119.5606 256° West  Level FlightAware Approximate
10:13PM -31.2336 119.5294 258° West  Level Estimated
10:14PM -31.2406 119.4896 258° West  Level FlightAware Approximate
10:15PM -31.2476 119.4497 258° West  Level FlightAware Approximate
10:15PM -31.2202 119.4574 257° West 6,000  Level Aus ATC (Calculated)
10:17PM -31.2350 119.3792 257° West  Level FlightAware Approximate
10:18PM -31.2425 119.3395 258° West  Level FlightAware Approximate
10:18PM -31.2403 119.3598 258° West 6,000  Level Aus ATC (Calculated)
10:19PM -31.2478 119.3201 258° West  Level FlightAware Approximate
10:19PM -31.2602 119.2536 78° East 6,000  Level Aus ATC (Calculated)
10:20PM -31.2552 119.2803 258° West  Level FlightAware Approximate
10:20PM -31.2602 119.2536 258° West 6,000  Level Aus ATC (Calculated)
10:21PM -31.2689 119.2074 258° West  Level FlightAware Approximate
10:22PM -31.2757 119.1707 258° West  Level FlightAware Approximate
10:23PM -31.2839 119.1267 258° West  Level FlightAware Approximate
10:24PM -31.2921 119.0827 258° West  Level FlightAware Approximate
10:25PM -31.3003 119.0386 258° West  Level FlightAware Approximate
10:26PM -31.3085 118.9946 258° West  Level FlightAware Approximate
10:27PM -31.3166 118.9505 258° West  Level FlightAware Approximate
10:28PM -31.3247 118.9064 258° West  Level FlightAware Approximate
10:29PM -31.3329 118.8624 258° West  Level FlightAware Approximate
10:30PM -31.3410 118.8183 258° West  Level FlightAware Approximate
10:31PM -31.3491 118.7742 258° West  Level FlightAware Approximate
10:32PM -31.3571 118.7301 258° West  Level FlightAware Approximate
10:33PM -31.3652 118.6860 258° West  Level FlightAware Approximate
10:34PM -31.3732 118.6418 258° West  Level FlightAware Approximate
10:35PM -31.3813 118.5977 258° West  Level FlightAware Approximate
10:36PM -31.3893 118.5536 258° West  Level FlightAware Approximate
10:37PM -31.3973 118.5095 258° West  Level FlightAware Approximate
10:38PM -31.4052 118.4653 258° West  Level FlightAware Approximate
10:38PM -31.3973 118.5093 258° West 6,000  Level Aus ATC (Calculated)
10:39PM -31.4132 118.4212 258° West  Level FlightAware Approximate
10:39PM -31.4165 118.4028 78° East 6,000  Level Aus ATC (Calculated)
10:40PM -31.4076 118.4519 258° West  Level FlightAware Approximate
10:41PM -31.4346 118.3385 241° Southwest  Level Estimated
10:41PM -31.4165 118.4028 251° West 6,000  Level Aus ATC (Calculated)
10:42PM -31.4474 118.3000 249° West  Level FlightAware Approximate
10:43PM -31.4356 118.3450 249° West  Level FlightAware Approximate
10:44PM -31.4483 118.3064 249° West  Level FlightAware Approximate
10:45PM -31.4611 118.2678 249° West  Level FlightAware Approximate
10:46PM -31.4738 118.2292 249° West  Level FlightAware Approximate
10:47PM -31.4865 118.1907 249° West  Level FlightAware Approximate
10:48PM -31.4991 118.1520 249° West  Level FlightAware Approximate
10:49PM -31.5118 118.1134 249° West  Level FlightAware Approximate
10:50PM -31.5245 118.0748 249° West  Level FlightAware Approximate
10:51PM -31.5371 118.0361 249° West  Level FlightAware Approximate
10:52PM -31.5498 117.9975 249° West  Level FlightAware Approximate
10:52PM -31.4925 117.9764 246° West 6,000  Level Aus ATC (Calculated)
10:54PM -31.5159 117.9161 245° Southwest  Level FlightAware Approximate
10:54PM -31.5113 117.8697 244° Southwest 6,000  Level Aus ATC (Calculated)
10:56PM -31.5371 117.8069 244° Southwest  Level FlightAware Approximate
10:57PM -31.5525 117.7696 244° Southwest  Level FlightAware Approximate
10:58PM -31.5678 117.7323 244° Southwest  Level FlightAware Approximate
10:59PM -31.5831 117.6950 244° Southwest  Level FlightAware Approximate
11:00PM -31.5984 117.6577 244° Southwest  Level FlightAware Approximate
11:00PM -31.5916 117.5664 180° South 6,000  Level Aus ATC (Calculated)
11:00PM -31.5916 117.5664 250° West 6,000  Level Aus ATC (Calculated)
11:02PM -31.6118 117.5008 259° West  Level Estimated
11:03PM -31.6239 117.4619 250° West  Level FlightAware Approximate
11:04PM -31.6360 117.4230 250° West  Level FlightAware Approximate
11:05PM -31.6482 117.3841 250° West  Level FlightAware Approximate
11:06PM -31.6603 117.3451 250° West  Level FlightAware Approximate
11:07PM -31.6723 117.3062 250° West  Level FlightAware Approximate
11:08PM -31.6844 117.2672 250° West  Level FlightAware Approximate
11:09PM -31.6965 117.2282 250° West  Level FlightAware Approximate
11:10PM -31.7085 117.1893 250° West  Level FlightAware Approximate
11:11PM -31.7193 117.1497 209° Southwest  Level Estimated
11:12PM -31.7352 117.1127 243° Southwest  Level FlightAware Approximate
11:13PM -31.7511 117.0757 243° Southwest  Level FlightAware Approximate
11:14PM -31.7627 117.0365 285° West  Level Estimated
11:15PM -31.7743 116.9973 251° West  Level FlightAware Approximate
11:16PM -31.7858 116.9580 251° West  Level FlightAware Approximate
11:17PM -31.7974 116.9188 251° West  Level FlightAware Approximate
11:18PM -31.8089 116.8796 251° West  Level FlightAware Approximate
11:19PM -31.8204 116.8403 251° West  Level FlightAware Approximate
11:19PM -31.9048 116.8476 332° Northwest 6,000  Level Aus ATC (Calculated)
11:20PM -31.8319 116.8011 285° West  Level Estimated
11:21PM -31.9137 116.8038 285° West  Level Estimated
11:22PM -31.9220 116.7634 285° West  Level Estimated
11:22PM -31.9188 116.7590 256° West 6,000  Level Aus ATC (Calculated)
11:24PM -31.9293 116.7085 285° West  Level Estimated
11:25PM -31.9376 116.6681 285° West  Level Estimated
11:26PM -31.9460 116.6277 285° West  Level Estimated
11:27PM -31.9543 116.5873 285° West  Level Estimated
11:28PM -31.9626 116.5469 285° West  Level Estimated
11:29PM -31.9709 116.5064 285° West  Level Estimated
11:30PM -31.9792 116.4660 285° West  Level Estimated
11:31PM -31.9875 116.4256 285° West  Level Estimated
11:32PM -31.9957 116.3851 285° West  Level Estimated
11:33PM -32.0040 116.3447 285° West  Level Estimated
11:34PM -32.0122 116.3042 285° West  Level Estimated
11:35PM -32.0205 116.2637 285° West  Level Estimated
11:36PM -32.0287 116.2233 285° West  Level Estimated
11:37PM -32.0369 116.1828 285° West  Level Estimated
11:37PM -32.0014 116.2267 252° West 5,200  Level Aus ATC (Calculated)
11:39PM -32.0191 116.1635 285° West  Level Estimated
11:40PM -32.0301 116.1239 285° West  Level Estimated
11:41PM -32.0411 116.0844 285° West  Level Estimated
11:41PM -32.1542 116.1250 326° Northwest 5,200  Level Aus ATC (Calculated)
11:42PM -32.0521 116.0449 285° West  Level Estimated
11:43PM -32.1410 116.0680 285° West  Level Estimated
11:43PM -32.1400 116.0640 285° West 100  Level Aus ATC (Calculated)
11:45PM -32.1267 116.0064 285° West  Level Estimated
11:45PM -32.1259 116.0031 285° West 100  Level Aus ATC (Calculated)
11:47PM -32.1106 115.9374 285° West  Level Estimated
11:48PM -32.1013 115.8973 285° West  Level Estimated
11:49PM -32.0974 115.8812 285° West  Level FlightAware Approximate
11:50PM -32.0975 115.8811 285° West  Level Estimated
11:51PM -32.0975 115.8811 285° West  Level Estimated